sensor_id;sensor_type;location;lat;lon;timestamp;P1;durP1;ratioP1;P2;durP2;ratioP2
22924;SDS011;11628;51.072;3.712;2023-05-29T00:00:06;17.77;;;9.32;;
22924;SDS011;11628;51.072;3.712;2023-05-29T00:02:32;19.88;;;9.80;;
22924;SDS011;11628;51.072;3.712;2023-05-29T00:05:01;18.10;;;9.95;;
22924;SDS011;11628;51.072;3.712;2023-05-29T00:07:30;15.07;;;10.77;;
22924;SDS011;11628;51.072;3.712;2023-05-29T00:09:57;19.20;;;11.13;;
22924;SDS011;11628;51.072;3.712;2023-05-29T00:12:23;18.80;;;10.30;;
22924;SDS011;11628;51.072;3.712;2023-05-29T00:14:50;17.60;;;9.43;;
22924;SDS011;11628;51.072;3.712;2023-05-29T00:17:16;13.18;;;9.40;;
22924;SDS011;11628;51.072;3.712;2023-05-29T00:19:42;17.08;;;9.73;;
22924;SDS011;11628;51.072;3.712;2023-05-29T00:22:08;17.63;;;9.65;;
22924;SDS011;11628;51.072;3.712;2023-05-29T00:24:35;14.45;;;8.80;;
22924;SDS011;11628;51.072;3.712;2023-05-29T00:27:00;17.85;;;9.43;;
22924;SDS011;11628;51.072;3.712;2023-05-29T00:29:26;18.38;;;10.27;;
22924;SDS011;11628;51.072;3.712;2023-05-29T00:31:52;21.17;;;11.85;;
22924;SDS011;11628;51.072;3.712;2023-05-29T00:34:22;20.02;;;11.18;;
22924;SDS011;11628;51.072;3.712;2023-05-29T00:36:48;23.15;;;10.35;;
22924;SDS011;11628;51.072;3.712;2023-05-29T00:39:14;18.48;;;10.27;;
22924;SDS011;11628;51.072;3.712;2023-05-29T00:41:40;21.63;;;9.45;;
22924;SDS011;11628;51.072;3.712;2023-05-29T00:44:06;17.50;;;8.38;;
22924;SDS011;11628;51.072;3.712;2023-05-29T00:46:32;15.32;;;8.98;;
22924;SDS011;11628;51.072;3.712;2023-05-29T00:48:59;23.85;;;10.15;;
22924;SDS011;11628;51.072;3.712;2023-05-29T00:51:25;17.52;;;7.38;;
22924;SDS011;11628;51.072;3.712;2023-05-29T00:53:52;15.75;;;8.00;;
22924;SDS011;11628;51.072;3.712;2023-05-29T00:56:19;24.15;;;9.40;;
22924;SDS011;11628;51.072;3.712;2023-05-29T00:58:46;16.42;;;9.05;;
22924;SDS011;11628;51.072;3.712;2023-05-29T01:01:15;19.92;;;9.90;;
22924;SDS011;11628;51.072;3.712;2023-05-29T01:03:42;19.50;;;8.95;;
22924;SDS011;11628;51.072;3.712;2023-05-29T01:06:08;17.23;;;9.50;;
22924;SDS011;11628;51.072;3.712;2023-05-29T01:08:35;20.63;;;10.02;;
22924;SDS011;11628;51.072;3.712;2023-05-29T01:11:05;24.58;;;10.18;;
22924;SDS011;11628;51.072;3.712;2023-05-29T01:13:42;19.75;;;10.05;;
22924;SDS011;11628;51.072;3.712;2023-05-29T01:18:57;19.80;;;8.18;;
22924;SDS011;11628;51.072;3.712;2023-05-29T01:24:37;19.03;;;7.47;;
22924;SDS011;11628;51.072;3.712;2023-05-29T01:27:09;23.02;;;7.13;;
22924;SDS011;11628;51.072;3.712;2023-05-29T01:29:36;17.70;;;7.15;;
22924;SDS011;11628;51.072;3.712;2023-05-29T01:32:04;16.95;;;6.68;;
22924;SDS011;11628;51.072;3.712;2023-05-29T01:34:31;13.35;;;5.03;;
22924;SDS011;11628;51.072;3.712;2023-05-29T01:36:56;14.38;;;5.32;;
22924;SDS011;11628;51.072;3.712;2023-05-29T01:39:23;20.05;;;6.25;;
22924;SDS011;11628;51.072;3.712;2023-05-29T01:41:49;16.70;;;4.85;;
22924;SDS011;11628;51.072;3.712;2023-05-29T01:44:15;13.68;;;3.90;;
22924;SDS011;11628;51.072;3.712;2023-05-29T01:46:42;14.30;;;4.22;;
22924;SDS011;11628;51.072;3.712;2023-05-29T01:49:11;12.85;;;3.67;;
22924;SDS011;11628;51.072;3.712;2023-05-29T01:51:38;15.23;;;5.60;;
22924;SDS011;11628;51.072;3.712;2023-05-29T01:54:05;18.45;;;4.15;;
22924;SDS011;11628;51.072;3.712;2023-05-29T01:56:33;13.50;;;3.35;;
22924;SDS011;11628;51.072;3.712;2023-05-29T01:59:00;15.63;;;4.35;;
22924;SDS011;11628;51.072;3.712;2023-05-29T02:01:27;13.75;;;3.80;;
22924;SDS011;11628;51.072;3.712;2023-05-29T02:03:53;15.80;;;3.38;;
22924;SDS011;11628;51.072;3.712;2023-05-29T02:06:19;11.98;;;3.28;;
22924;SDS011;11628;51.072;3.712;2023-05-29T02:08:45;15.93;;;3.30;;
22924;SDS011;11628;51.072;3.712;2023-05-29T02:11:11;11.07;;;3.13;;
22924;SDS011;11628;51.072;3.712;2023-05-29T02:13:41;12.45;;;2.95;;
22924;SDS011;11628;51.072;3.712;2023-05-29T02:16:07;17.40;;;3.58;;
22924;SDS011;11628;51.072;3.712;2023-05-29T02:18:32;13.40;;;3.53;;
22924;SDS011;11628;51.072;3.712;2023-05-29T02:20:59;17.08;;;4.43;;
22924;SDS011;11628;51.072;3.712;2023-05-29T02:23:25;16.25;;;3.45;;
22924;SDS011;11628;51.072;3.712;2023-05-29T02:25:51;8.63;;;3.15;;
22924;SDS011;11628;51.072;3.712;2023-05-29T02:28:16;10.93;;;3.03;;
22924;SDS011;11628;51.072;3.712;2023-05-29T02:30:42;14.57;;;3.38;;
22924;SDS011;11628;51.072;3.712;2023-05-29T02:33:08;10.98;;;3.70;;
22924;SDS011;11628;51.072;3.712;2023-05-29T02:35:34;15.50;;;4.00;;
22924;SDS011;11628;51.072;3.712;2023-05-29T02:37:59;12.75;;;3.22;;
22924;SDS011;11628;51.072;3.712;2023-05-29T02:40:25;14.57;;;3.60;;
22924;SDS011;11628;51.072;3.712;2023-05-29T02:42:51;17.95;;;4.22;;
22924;SDS011;11628;51.072;3.712;2023-05-29T02:45:17;9.35;;;2.80;;
22924;SDS011;11628;51.072;3.712;2023-05-29T02:47:43;16.23;;;4.47;;
22924;SDS011;11628;51.072;3.712;2023-05-29T02:50:08;12.63;;;3.00;;
22924;SDS011;11628;51.072;3.712;2023-05-29T02:52:35;13.23;;;3.72;;
22924;SDS011;11628;51.072;3.712;2023-05-29T02:55:03;11.57;;;3.00;;
22924;SDS011;11628;51.072;3.712;2023-05-29T02:57:30;10.90;;;2.90;;
22924;SDS011;11628;51.072;3.712;2023-05-29T02:59:56;13.68;;;2.78;;
22924;SDS011;11628;51.072;3.712;2023-05-29T03:02:22;13.77;;;4.00;;
22924;SDS011;11628;51.072;3.712;2023-05-29T03:04:48;14.75;;;3.53;;
22924;SDS011;11628;51.072;3.712;2023-05-29T03:07:17;13.55;;;3.72;;
22924;SDS011;11628;51.072;3.712;2023-05-29T03:09:43;13.48;;;3.92;;
22924;SDS011;11628;51.072;3.712;2023-05-29T03:12:09;12.02;;;3.90;;
22924;SDS011;11628;51.072;3.712;2023-05-29T03:14:36;13.00;;;4.32;;
22924;SDS011;11628;51.072;3.712;2023-05-29T03:17:03;18.70;;;3.72;;
22924;SDS011;11628;51.072;3.712;2023-05-29T03:19:30;15.52;;;4.68;;
22924;SDS011;11628;51.072;3.712;2023-05-29T03:21:56;13.80;;;3.50;;
22924;SDS011;11628;51.072;3.712;2023-05-29T03:24:22;15.30;;;3.97;;
22924;SDS011;11628;51.072;3.712;2023-05-29T03:26:48;11.13;;;3.60;;
22924;SDS011;11628;51.072;3.712;2023-05-29T03:29:15;13.93;;;3.80;;
22924;SDS011;11628;51.072;3.712;2023-05-29T03:31:41;11.52;;;3.40;;
22924;SDS011;11628;51.072;3.712;2023-05-29T03:34:07;11.15;;;3.38;;
22924;SDS011;11628;51.072;3.712;2023-05-29T03:36:32;11.05;;;3.13;;
22924;SDS011;11628;51.072;3.712;2023-05-29T03:39:01;16.90;;;3.40;;
22924;SDS011;11628;51.072;3.712;2023-05-29T03:41:27;15.40;;;3.45;;
22924;SDS011;11628;51.072;3.712;2023-05-29T03:43:53;12.75;;;4.03;;
22924;SDS011;11628;51.072;3.712;2023-05-29T03:46:19;16.85;;;4.47;;
22924;SDS011;11628;51.072;3.712;2023-05-29T03:48:45;15.75;;;3.65;;
22924;SDS011;11628;51.072;3.712;2023-05-29T03:51:10;15.88;;;3.22;;
22924;SDS011;11628;51.072;3.712;2023-05-29T03:53:36;11.30;;;2.85;;
22924;SDS011;11628;51.072;3.712;2023-05-29T03:56:02;13.15;;;3.10;;
22924;SDS011;11628;51.072;3.712;2023-05-29T03:58:28;10.07;;;3.00;;
22924;SDS011;11628;51.072;3.712;2023-05-29T04:00:53;19.55;;;3.33;;
22924;SDS011;11628;51.072;3.712;2023-05-29T04:03:19;15.95;;;3.13;;
22924;SDS011;11628;51.072;3.712;2023-05-29T04:05:45;12.07;;;3.72;;
22924;SDS011;11628;51.072;3.712;2023-05-29T04:08:11;14.23;;;3.67;;
22924;SDS011;11628;51.072;3.712;2023-05-29T04:10:38;16.75;;;4.97;;
22924;SDS011;11628;51.072;3.712;2023-05-29T04:13:04;15.38;;;5.20;;
22924;SDS011;11628;51.072;3.712;2023-05-29T04:15:31;19.02;;;5.18;;
22924;SDS011;11628;51.072;3.712;2023-05-29T04:17:58;16.38;;;6.18;;
22924;SDS011;11628;51.072;3.712;2023-05-29T04:20:24;14.90;;;5.50;;
22924;SDS011;11628;51.072;3.712;2023-05-29T04:22:50;18.38;;;5.38;;
22924;SDS011;11628;51.072;3.712;2023-05-29T04:25:16;14.20;;;5.03;;
22924;SDS011;11628;51.072;3.712;2023-05-29T04:27:43;16.02;;;4.30;;
22924;SDS011;11628;51.072;3.712;2023-05-29T04:30:13;18.15;;;3.85;;
22924;SDS011;11628;51.072;3.712;2023-05-29T04:32:40;15.35;;;3.67;;
22924;SDS011;11628;51.072;3.712;2023-05-29T04:35:06;17.20;;;3.90;;
22924;SDS011;11628;51.072;3.712;2023-05-29T04:37:31;17.52;;;3.78;;
22924;SDS011;11628;51.072;3.712;2023-05-29T04:40:03;16.00;;;3.25;;
22924;SDS011;11628;51.072;3.712;2023-05-29T04:42:35;20.08;;;3.67;;
22924;SDS011;11628;51.072;3.712;2023-05-29T04:45:02;12.75;;;2.72;;
22924;SDS011;11628;51.072;3.712;2023-05-29T04:47:31;19.70;;;4.22;;
22924;SDS011;11628;51.072;3.712;2023-05-29T04:50:00;16.30;;;3.40;;
22924;SDS011;11628;51.072;3.712;2023-05-29T04:52:26;16.63;;;2.92;;
22924;SDS011;11628;51.072;3.712;2023-05-29T04:54:52;15.25;;;3.20;;
22924;SDS011;11628;51.072;3.712;2023-05-29T04:57:21;19.65;;;3.22;;
22924;SDS011;11628;51.072;3.712;2023-05-29T04:59:47;16.02;;;3.42;;
22924;SDS011;11628;51.072;3.712;2023-05-29T05:02:13;15.38;;;2.63;;
22924;SDS011;11628;51.072;3.712;2023-05-29T05:04:39;19.88;;;3.75;;
22924;SDS011;11628;51.072;3.712;2023-05-29T05:07:05;14.77;;;3.17;;
22924;SDS011;11628;51.072;3.712;2023-05-29T05:09:31;12.25;;;2.50;;
22924;SDS011;11628;51.072;3.712;2023-05-29T05:11:57;18.13;;;3.17;;
22924;SDS011;11628;51.072;3.712;2023-05-29T05:14:22;15.02;;;2.92;;
22924;SDS011;11628;51.072;3.712;2023-05-29T05:16:48;14.20;;;2.63;;
22924;SDS011;11628;51.072;3.712;2023-05-29T05:19:14;14.07;;;2.85;;
22924;SDS011;11628;51.072;3.712;2023-05-29T05:21:40;13.85;;;3.05;;
22924;SDS011;11628;51.072;3.712;2023-05-29T05:24:06;20.15;;;3.15;;
22924;SDS011;11628;51.072;3.712;2023-05-29T05:26:32;15.32;;;3.58;;
22924;SDS011;11628;51.072;3.712;2023-05-29T05:28:57;13.30;;;3.05;;
22924;SDS011;11628;51.072;3.712;2023-05-29T05:31:23;10.55;;;2.47;;
22924;SDS011;11628;51.072;3.712;2023-05-29T05:33:50;14.02;;;2.83;;
22924;SDS011;11628;51.072;3.712;2023-05-29T05:36:15;13.13;;;3.45;;
22924;SDS011;11628;51.072;3.712;2023-05-29T05:38:41;12.90;;;3.03;;
22924;SDS011;11628;51.072;3.712;2023-05-29T05:41:07;18.38;;;3.78;;
22924;SDS011;11628;51.072;3.712;2023-05-29T05:43:32;12.50;;;3.17;;
22924;SDS011;11628;51.072;3.712;2023-05-29T05:45:59;14.15;;;2.60;;
22924;SDS011;11628;51.072;3.712;2023-05-29T05:48:25;14.63;;;2.53;;
22924;SDS011;11628;51.072;3.712;2023-05-29T05:50:51;13.05;;;3.47;;
22924;SDS011;11628;51.072;3.712;2023-05-29T05:53:16;14.10;;;2.50;;
22924;SDS011;11628;51.072;3.712;2023-05-29T05:55:43;11.55;;;2.60;;
22924;SDS011;11628;51.072;3.712;2023-05-29T05:58:08;13.45;;;2.78;;
22924;SDS011;11628;51.072;3.712;2023-05-29T06:00:34;12.10;;;2.67;;
22924;SDS011;11628;51.072;3.712;2023-05-29T06:03:00;11.85;;;2.47;;
22924;SDS011;11628;51.072;3.712;2023-05-29T06:05:28;10.88;;;2.30;;
22924;SDS011;11628;51.072;3.712;2023-05-29T06:07:54;11.52;;;3.63;;
22924;SDS011;11628;51.072;3.712;2023-05-29T06:10:20;14.05;;;2.63;;
22924;SDS011;11628;51.072;3.712;2023-05-29T06:12:45;15.07;;;3.45;;
22924;SDS011;11628;51.072;3.712;2023-05-29T06:15:11;13.23;;;2.40;;
22924;SDS011;11628;51.072;3.712;2023-05-29T06:17:37;12.05;;;2.90;;
22924;SDS011;11628;51.072;3.712;2023-05-29T06:20:04;15.70;;;2.58;;
22924;SDS011;11628;51.072;3.712;2023-05-29T06:22:35;14.18;;;3.00;;
22924;SDS011;11628;51.072;3.712;2023-05-29T06:25:01;9.82;;;3.00;;
22924;SDS011;11628;51.072;3.712;2023-05-29T06:27:26;12.32;;;2.40;;
22924;SDS011;11628;51.072;3.712;2023-05-29T06:29:52;14.50;;;2.50;;
22924;SDS011;11628;51.072;3.712;2023-05-29T06:32:18;15.45;;;2.40;;
22924;SDS011;11628;51.072;3.712;2023-05-29T06:34:43;13.60;;;2.63;;
22924;SDS011;11628;51.072;3.712;2023-05-29T06:37:09;12.63;;;3.00;;
22924;SDS011;11628;51.072;3.712;2023-05-29T06:39:35;12.05;;;2.53;;
22924;SDS011;11628;51.072;3.712;2023-05-29T06:42:01;13.27;;;2.53;;
22924;SDS011;11628;51.072;3.712;2023-05-29T06:44:27;13.98;;;2.70;;
22924;SDS011;11628;51.072;3.712;2023-05-29T06:46:53;14.27;;;3.35;;
22924;SDS011;11628;51.072;3.712;2023-05-29T06:49:18;10.75;;;2.72;;
22924;SDS011;11628;51.072;3.712;2023-05-29T06:51:44;10.77;;;2.47;;
22924;SDS011;11628;51.072;3.712;2023-05-29T06:54:10;11.38;;;2.05;;
22924;SDS011;11628;51.072;3.712;2023-05-29T06:56:35;12.15;;;2.70;;
22924;SDS011;11628;51.072;3.712;2023-05-29T06:59:01;11.57;;;2.25;;
22924;SDS011;11628;51.072;3.712;2023-05-29T07:01:27;10.25;;;2.72;;
22924;SDS011;11628;51.072;3.712;2023-05-29T07:03:52;14.43;;;2.70;;
22924;SDS011;11628;51.072;3.712;2023-05-29T07:06:18;13.93;;;2.30;;
22924;SDS011;11628;51.072;3.712;2023-05-29T07:08:44;12.65;;;2.15;;
22924;SDS011;11628;51.072;3.712;2023-05-29T07:11:10;13.82;;;2.22;;
22924;SDS011;11628;51.072;3.712;2023-05-29T07:13:36;10.93;;;2.40;;
22924;SDS011;11628;51.072;3.712;2023-05-29T07:16:01;14.43;;;2.20;;
22924;SDS011;11628;51.072;3.712;2023-05-29T07:18:27;7.65;;;2.10;;
22924;SDS011;11628;51.072;3.712;2023-05-29T07:20:55;13.65;;;2.42;;
22924;SDS011;11628;51.072;3.712;2023-05-29T07:23:22;11.18;;;2.20;;
22924;SDS011;11628;51.072;3.712;2023-05-29T07:25:48;15.63;;;2.60;;
22924;SDS011;11628;51.072;3.712;2023-05-29T07:28:14;11.43;;;2.38;;
22924;SDS011;11628;51.072;3.712;2023-05-29T07:30:40;10.38;;;2.80;;
22924;SDS011;11628;51.072;3.712;2023-05-29T07:33:06;11.65;;;2.42;;
22924;SDS011;11628;51.072;3.712;2023-05-29T07:35:32;9.93;;;2.13;;
22924;SDS011;11628;51.072;3.712;2023-05-29T07:37:58;14.43;;;3.17;;
22924;SDS011;11628;51.072;3.712;2023-05-29T07:40:24;14.25;;;2.90;;
22924;SDS011;11628;51.072;3.712;2023-05-29T07:42:50;10.82;;;2.53;;
22924;SDS011;11628;51.072;3.712;2023-05-29T07:45:16;19.60;;;2.95;;
22924;SDS011;11628;51.072;3.712;2023-05-29T07:47:41;9.15;;;2.95;;
22924;SDS011;11628;51.072;3.712;2023-05-29T07:50:07;11.48;;;2.67;;
22924;SDS011;11628;51.072;3.712;2023-05-29T07:52:34;14.15;;;2.75;;
22924;SDS011;11628;51.072;3.712;2023-05-29T07:55:00;10.48;;;2.55;;
22924;SDS011;11628;51.072;3.712;2023-05-29T07:57:27;18.75;;;7.22;;
22924;SDS011;11628;51.072;3.712;2023-05-29T07:59:53;8.77;;;2.33;;
22924;SDS011;11628;51.072;3.712;2023-05-29T08:02:19;8.57;;;1.92;;
22924;SDS011;11628;51.072;3.712;2023-05-29T08:04:46;11.27;;;2.22;;
22924;SDS011;11628;51.072;3.712;2023-05-29T08:07:12;11.48;;;2.72;;
22924;SDS011;11628;51.072;3.712;2023-05-29T08:09:38;12.05;;;2.97;;
22924;SDS011;11628;51.072;3.712;2023-05-29T08:12:04;9.50;;;3.00;;
22924;SDS011;11628;51.072;3.712;2023-05-29T08:14:30;12.57;;;3.03;;
22924;SDS011;11628;51.072;3.712;2023-05-29T08:16:56;10.23;;;2.55;;
22924;SDS011;11628;51.072;3.712;2023-05-29T08:19:22;11.45;;;2.30;;
22924;SDS011;11628;51.072;3.712;2023-05-29T08:21:48;10.75;;;2.65;;
22924;SDS011;11628;51.072;3.712;2023-05-29T08:24:14;9.55;;;2.40;;
22924;SDS011;11628;51.072;3.712;2023-05-29T08:26:40;10.18;;;2.10;;
22924;SDS011;11628;51.072;3.712;2023-05-29T08:29:06;10.05;;;2.35;;
22924;SDS011;11628;51.072;3.712;2023-05-29T08:31:32;13.48;;;2.83;;
22924;SDS011;11628;51.072;3.712;2023-05-29T08:33:57;12.65;;;2.92;;
22924;SDS011;11628;51.072;3.712;2023-05-29T08:36:24;11.43;;;2.50;;
22924;SDS011;11628;51.072;3.712;2023-05-29T08:38:50;11.90;;;2.30;;
22924;SDS011;11628;51.072;3.712;2023-05-29T08:41:27;12.75;;;2.70;;
22924;SDS011;11628;51.072;3.712;2023-05-29T08:43:59;17.83;;;5.15;;
22924;SDS011;11628;51.072;3.712;2023-05-29T08:46:27;17.65;;;4.68;;
22924;SDS011;11628;51.072;3.712;2023-05-29T08:48:53;12.55;;;3.90;;
22924;SDS011;11628;51.072;3.712;2023-05-29T08:51:23;12.73;;;3.10;;
22924;SDS011;11628;51.072;3.712;2023-05-29T08:53:56;14.93;;;3.13;;
22924;SDS011;11628;51.072;3.712;2023-05-29T08:56:22;14.40;;;2.75;;
22924;SDS011;11628;51.072;3.712;2023-05-29T08:58:48;13.20;;;2.88;;
22924;SDS011;11628;51.072;3.712;2023-05-29T09:01:15;8.35;;;2.42;;
22924;SDS011;11628;51.072;3.712;2023-05-29T09:03:42;9.50;;;2.22;;
22924;SDS011;11628;51.072;3.712;2023-05-29T09:06:07;8.27;;;2.53;;
22924;SDS011;11628;51.072;3.712;2023-05-29T09:08:33;12.38;;;2.88;;
22924;SDS011;11628;51.072;3.712;2023-05-29T09:11:02;10.48;;;2.90;;
22924;SDS011;11628;51.072;3.712;2023-05-29T09:13:27;12.07;;;4.80;;
22924;SDS011;11628;51.072;3.712;2023-05-29T09:15:59;13.30;;;3.03;;
22924;SDS011;11628;51.072;3.712;2023-05-29T09:18:28;7.68;;;2.40;;
22924;SDS011;11628;51.072;3.712;2023-05-29T09:20:55;16.65;;;3.58;;
22924;SDS011;11628;51.072;3.712;2023-05-29T09:23:20;18.27;;;4.70;;
22924;SDS011;11628;51.072;3.712;2023-05-29T09:25:46;11.23;;;3.40;;
22924;SDS011;11628;51.072;3.712;2023-05-29T09:28:18;13.88;;;3.20;;
22924;SDS011;11628;51.072;3.712;2023-05-29T09:30:46;11.40;;;2.97;;
22924;SDS011;11628;51.072;3.712;2023-05-29T09:33:12;9.93;;;2.58;;
22924;SDS011;11628;51.072;3.712;2023-05-29T09:35:43;13.75;;;3.08;;
22924;SDS011;11628;51.072;3.712;2023-05-29T09:38:11;10.80;;;3.20;;
22924;SDS011;11628;51.072;3.712;2023-05-29T09:40:39;9.07;;;3.13;;
22924;SDS011;11628;51.072;3.712;2023-05-29T09:43:08;10.27;;;3.65;;
22924;SDS011;11628;51.072;3.712;2023-05-29T09:45:39;15.32;;;3.80;;
22924;SDS011;11628;51.072;3.712;2023-05-29T09:48:13;18.05;;;6.10;;
22924;SDS011;11628;51.072;3.712;2023-05-29T09:50:40;12.48;;;3.13;;
22924;SDS011;11628;51.072;3.712;2023-05-29T09:53:22;13.60;;;3.03;;
22924;SDS011;11628;51.072;3.712;2023-05-29T09:55:50;12.80;;;2.97;;
22924;SDS011;11628;51.072;3.712;2023-05-29T09:58:19;11.18;;;3.17;;
22924;SDS011;11628;51.072;3.712;2023-05-29T10:00:49;12.05;;;3.38;;
22924;SDS011;11628;51.072;3.712;2023-05-29T10:03:16;13.15;;;3.08;;
22924;SDS011;11628;51.072;3.712;2023-05-29T10:05:49;10.65;;;3.35;;
22924;SDS011;11628;51.072;3.712;2023-05-29T10:08:17;9.43;;;3.85;;
22924;SDS011;11628;51.072;3.712;2023-05-29T10:10:44;10.18;;;3.38;;
22924;SDS011;11628;51.072;3.712;2023-05-29T10:13:13;13.68;;;3.15;;
22924;SDS011;11628;51.072;3.712;2023-05-29T10:15:41;14.15;;;2.92;;
22924;SDS011;11628;51.072;3.712;2023-05-29T10:18:20;11.90;;;3.20;;
22924;SDS011;11628;51.072;3.712;2023-05-29T10:20:52;11.73;;;3.28;;
22924;SDS011;11628;51.072;3.712;2023-05-29T10:23:22;12.27;;;3.72;;
22924;SDS011;11628;51.072;3.712;2023-05-29T10:25:51;10.77;;;2.90;;
22924;SDS011;11628;51.072;3.712;2023-05-29T10:28:22;11.75;;;3.33;;
22924;SDS011;11628;51.072;3.712;2023-05-29T10:30:55;12.13;;;2.80;;
22924;SDS011;11628;51.072;3.712;2023-05-29T10:36:30;11.13;;;2.60;;
22924;SDS011;11628;51.072;3.712;2023-05-29T10:39:03;9.63;;;3.10;;
22924;SDS011;11628;51.072;3.712;2023-05-29T10:41:29;11.80;;;3.08;;
22924;SDS011;11628;51.072;3.712;2023-05-29T10:46:29;11.20;;;2.97;;
22924;SDS011;11628;51.072;3.712;2023-05-29T10:49:17;8.32;;;3.17;;
22924;SDS011;11628;51.072;3.712;2023-05-29T10:51:44;11.40;;;3.45;;
22924;SDS011;11628;51.072;3.712;2023-05-29T10:54:10;13.10;;;3.78;;
22924;SDS011;11628;51.072;3.712;2023-05-29T10:56:36;9.68;;;2.80;;
22924;SDS011;11628;51.072;3.712;2023-05-29T10:59:02;14.00;;;4.03;;
22924;SDS011;11628;51.072;3.712;2023-05-29T11:01:28;9.93;;;3.05;;
22924;SDS011;11628;51.072;3.712;2023-05-29T11:06:42;11.70;;;3.88;;
22924;SDS011;11628;51.072;3.712;2023-05-29T11:14:54;9.85;;;2.70;;
22924;SDS011;11628;51.072;3.712;2023-05-29T11:20:07;11.68;;;4.43;;
22924;SDS011;11628;51.072;3.712;2023-05-29T11:23:01;7.30;;;3.15;;
22924;SDS011;11628;51.072;3.712;2023-05-29T11:25:32;9.10;;;2.72;;
22924;SDS011;11628;51.072;3.712;2023-05-29T11:28:02;7.88;;;2.60;;
22924;SDS011;11628;51.072;3.712;2023-05-29T11:30:40;10.55;;;3.20;;
22924;SDS011;11628;51.072;3.712;2023-05-29T11:33:12;9.80;;;3.33;;
22924;SDS011;11628;51.072;3.712;2023-05-29T11:35:44;13.07;;;3.70;;
22924;SDS011;11628;51.072;3.712;2023-05-29T11:38:12;10.35;;;3.33;;
22924;SDS011;11628;51.072;3.712;2023-05-29T11:40:40;11.85;;;3.58;;
22924;SDS011;11628;51.072;3.712;2023-05-29T11:43:06;7.88;;;2.33;;
22924;SDS011;11628;51.072;3.712;2023-05-29T11:45:32;10.63;;;2.90;;
22924;SDS011;11628;51.072;3.712;2023-05-29T11:48:02;12.02;;;3.70;;
22924;SDS011;11628;51.072;3.712;2023-05-29T11:50:29;9.93;;;3.70;;
22924;SDS011;11628;51.072;3.712;2023-05-29T11:52:58;10.27;;;3.10;;
22924;SDS011;11628;51.072;3.712;2023-05-29T11:55:24;7.65;;;2.75;;
22924;SDS011;11628;51.072;3.712;2023-05-29T11:57:51;12.35;;;3.03;;
22924;SDS011;11628;51.072;3.712;2023-05-29T12:00:21;8.52;;;2.50;;
22924;SDS011;11628;51.072;3.712;2023-05-29T12:02:47;8.40;;;2.40;;
22924;SDS011;11628;51.072;3.712;2023-05-29T12:05:15;8.32;;;2.78;;
22924;SDS011;11628;51.072;3.712;2023-05-29T12:07:46;8.18;;;2.80;;
22924;SDS011;11628;51.072;3.712;2023-05-29T12:10:15;8.65;;;3.05;;
22924;SDS011;11628;51.072;3.712;2023-05-29T12:12:42;10.25;;;3.45;;
22924;SDS011;11628;51.072;3.712;2023-05-29T12:15:11;10.02;;;2.72;;
22924;SDS011;11628;51.072;3.712;2023-05-29T12:17:38;6.70;;;2.78;;
22924;SDS011;11628;51.072;3.712;2023-05-29T12:20:05;10.43;;;3.30;;
22924;SDS011;11628;51.072;3.712;2023-05-29T12:22:35;9.95;;;3.10;;
22924;SDS011;11628;51.072;3.712;2023-05-29T12:25:06;7.97;;;2.60;;
22924;SDS011;11628;51.072;3.712;2023-05-29T12:27:39;9.00;;;2.50;;
22924;SDS011;11628;51.072;3.712;2023-05-29T12:30:20;8.43;;;2.65;;
22924;SDS011;11628;51.072;3.712;2023-05-29T12:32:48;6.28;;;2.47;;
22924;SDS011;11628;51.072;3.712;2023-05-29T12:37:46;7.10;;;2.90;;
22924;SDS011;11628;51.072;3.712;2023-05-29T12:40:17;7.85;;;2.50;;
22924;SDS011;11628;51.072;3.712;2023-05-29T12:42:44;8.02;;;2.90;;
22924;SDS011;11628;51.072;3.712;2023-05-29T12:45:15;9.43;;;3.35;;
22924;SDS011;11628;51.072;3.712;2023-05-29T12:47:49;7.63;;;2.80;;
22924;SDS011;11628;51.072;3.712;2023-05-29T12:50:31;7.10;;;2.85;;
22924;SDS011;11628;51.072;3.712;2023-05-29T12:53:05;7.65;;;2.42;;
22924;SDS011;11628;51.072;3.712;2023-05-29T12:55:32;9.57;;;2.88;;
22924;SDS011;11628;51.072;3.712;2023-05-29T12:58:03;7.18;;;2.53;;
22924;SDS011;11628;51.072;3.712;2023-05-29T13:00:30;6.13;;;3.22;;
22924;SDS011;11628;51.072;3.712;2023-05-29T13:02:56;11.20;;;4.35;;
22924;SDS011;11628;51.072;3.712;2023-05-29T13:05:23;8.07;;;3.38;;
22924;SDS011;11628;51.072;3.712;2023-05-29T13:07:49;8.15;;;2.90;;
22924;SDS011;11628;51.072;3.712;2023-05-29T13:10:15;6.47;;;2.28;;
22924;SDS011;11628;51.072;3.712;2023-05-29T13:12:42;7.03;;;2.83;;
22924;SDS011;11628;51.072;3.712;2023-05-29T13:15:09;8.60;;;3.28;;
22924;SDS011;11628;51.072;3.712;2023-05-29T13:17:36;9.55;;;2.85;;
22924;SDS011;11628;51.072;3.712;2023-05-29T13:20:02;9.25;;;2.42;;
22924;SDS011;11628;51.072;3.712;2023-05-29T13:22:32;8.07;;;2.50;;
22924;SDS011;11628;51.072;3.712;2023-05-29T13:24:59;8.23;;;2.38;;
22924;SDS011;11628;51.072;3.712;2023-05-29T13:27:25;11.60;;;3.10;;
22924;SDS011;11628;51.072;3.712;2023-05-29T13:29:52;6.70;;;2.35;;
22924;SDS011;11628;51.072;3.712;2023-05-29T13:32:18;6.20;;;2.28;;
22924;SDS011;11628;51.072;3.712;2023-05-29T13:34:44;6.43;;;2.70;;
22924;SDS011;11628;51.072;3.712;2023-05-29T13:37:10;6.93;;;2.28;;
22924;SDS011;11628;51.072;3.712;2023-05-29T13:39:36;7.82;;;2.60;;
22924;SDS011;11628;51.072;3.712;2023-05-29T13:42:02;7.88;;;2.95;;
22924;SDS011;11628;51.072;3.712;2023-05-29T13:44:27;9.15;;;2.90;;
22924;SDS011;11628;51.072;3.712;2023-05-29T13:46:53;8.13;;;2.20;;
22924;SDS011;11628;51.072;3.712;2023-05-29T13:49:19;6.93;;;2.08;;
22924;SDS011;11628;51.072;3.712;2023-05-29T13:51:45;7.00;;;2.10;;
22924;SDS011;11628;51.072;3.712;2023-05-29T13:54:12;7.32;;;2.50;;
22924;SDS011;11628;51.072;3.712;2023-05-29T13:56:40;8.88;;;2.33;;
22924;SDS011;11628;51.072;3.712;2023-05-29T13:59:06;7.13;;;2.55;;
22924;SDS011;11628;51.072;3.712;2023-05-29T14:01:34;9.25;;;2.70;;
22924;SDS011;11628;51.072;3.712;2023-05-29T14:04:00;11.20;;;6.13;;
22924;SDS011;11628;51.072;3.712;2023-05-29T14:06:26;7.25;;;3.03;;
22924;SDS011;11628;51.072;3.712;2023-05-29T14:08:52;23.38;;;3.17;;
22924;SDS011;11628;51.072;3.712;2023-05-29T14:11:18;6.32;;;2.45;;
22924;SDS011;11628;51.072;3.712;2023-05-29T14:13:44;8.85;;;2.47;;
22924;SDS011;11628;51.072;3.712;2023-05-29T14:16:10;10.45;;;2.95;;
22924;SDS011;11628;51.072;3.712;2023-05-29T14:18:36;9.10;;;2.58;;
22924;SDS011;11628;51.072;3.712;2023-05-29T14:21:01;5.85;;;2.10;;
22924;SDS011;11628;51.072;3.712;2023-05-29T14:23:27;8.15;;;2.15;;
22924;SDS011;11628;51.072;3.712;2023-05-29T14:25:53;7.45;;;2.67;;
22924;SDS011;11628;51.072;3.712;2023-05-29T14:28:18;6.22;;;2.42;;
22924;SDS011;11628;51.072;3.712;2023-05-29T14:30:44;11.20;;;2.78;;
22924;SDS011;11628;51.072;3.712;2023-05-29T14:33:10;9.48;;;3.00;;
22924;SDS011;11628;51.072;3.712;2023-05-29T14:35:36;10.00;;;2.60;;
22924;SDS011;11628;51.072;3.712;2023-05-29T14:38:01;9.57;;;2.92;;
22924;SDS011;11628;51.072;3.712;2023-05-29T14:40:27;8.43;;;3.05;;
22924;SDS011;11628;51.072;3.712;2023-05-29T14:42:53;10.38;;;2.63;;
22924;SDS011;11628;51.072;3.712;2023-05-29T14:45:22;8.85;;;3.10;;
22924;SDS011;11628;51.072;3.712;2023-05-29T14:47:47;10.98;;;4.03;;
22924;SDS011;11628;51.072;3.712;2023-05-29T14:50:13;12.95;;;3.65;;
22924;SDS011;11628;51.072;3.712;2023-05-29T14:52:45;8.98;;;3.10;;
22924;SDS011;11628;51.072;3.712;2023-05-29T14:55:12;8.27;;;3.72;;
22924;SDS011;11628;51.072;3.712;2023-05-29T14:57:40;10.27;;;2.63;;
22924;SDS011;11628;51.072;3.712;2023-05-29T15:00:06;12.43;;;4.07;;
22924;SDS011;11628;51.072;3.712;2023-05-29T15:02:32;10.18;;;3.53;;